Aviation Digital Data Service (ADDS)

Output produced by METARs form (2103 UTC 21 September 2021)
found at http://www.aviationweather.gov/metar/data/
 
TAF COR MMCZ 211925Z 2118/2224 06010KT P6SM SCT015 TX32/2118Z TN26/2209Z 
     TEMPO 2120/2124 P6SM VC RA BKN015CB 
     FM220200 07008KT P6SM SCT015 BKN200 
     TEMPO 2202/2206 4SM TSRA BKN015CB 
     FM221500 06008KT P6SM SCT015 BKN120